AAL313 KABQ-KSFO
Flight info
| Callsign | AAL313 |
|---|---|
| Flight time | 2h 2m |
| Altitude | 30000 |
| Route | RDRNR3 GUP BAVPE BLD BTY RUSME DYAMD5 |
| Aircraft | B738/M-SDE2E3FGHIRWXY/LB1 |
Departure
| Time | 2026-05-04 02:09 |
|---|---|
| Airport | Albuquerque International Sunport (KABQ) |
Arrival
| Time | 2026-05-04 04:12 |
|---|---|
| Airport | San Francisco International Airport (KSFO) |
| Time | Latitude | Longitude | Altitude | Speed | Heading |
|---|---|---|---|---|---|
| 2026-05-04 01:33 | 35.04724 | -106.59103 | 5328 ft | 0 kts | 227° |
| 2026-05-04 01:55 | 35.04737 | -106.59085 | 5332 ft | 4 kts | 226° |
| 2026-05-04 01:55 | 35.04754 | -106.59065 | 5333 ft | 3 kts | 226° |
| 2026-05-04 01:55 | 35.04767 | -106.59040 | 5319 ft | 4 kts | 260° |
| 2026-05-04 01:56 | 35.04769 | -106.59010 | 5321 ft | 1 kts | 271° |
| 2026-05-04 01:56 | 35.04769 | -106.59009 | 5321 ft | 1 kts | 271° |
| 2026-05-04 01:59 | 35.04769 | -106.59010 | 5321 ft | 1 kts | 271° |
| 2026-05-04 01:59 | 35.04769 | -106.59033 | 5320 ft | 4 kts | 270° |
| 2026-05-04 01:59 | 35.04769 | -106.59078 | 5335 ft | 7 kts | 269° |
| 2026-05-04 02:00 | 35.04768 | -106.59147 | 5328 ft | 10 kts | 269° |
| 2026-05-04 02:00 | 35.04749 | -106.59236 | 5325 ft | 13 kts | 217° |
| 2026-05-04 02:00 | 35.04684 | -106.59306 | 5322 ft | 13 kts | 259° |
| 2026-05-04 02:00 | 35.04682 | -106.59415 | 5333 ft | 13 kts | 272° |
| 2026-05-04 02:01 | 35.04702 | -106.59519 | 5332 ft | 12 kts | 284° |
| 2026-05-04 02:01 | 35.04721 | -106.59621 | 5332 ft | 12 kts | 281° |
| 2026-05-04 02:01 | 35.04726 | -106.59721 | 5323 ft | 12 kts | 269° |
| 2026-05-04 02:01 | 35.04722 | -106.59829 | 5327 ft | 14 kts | 266° |
| 2026-05-04 02:02 | 35.04682 | -106.59925 | 5327 ft | 13 kts | 216° |
| 2026-05-04 02:02 | 35.04648 | -106.60023 | 5327 ft | 13 kts | 269° |
| 2026-05-04 02:02 | 35.04647 | -106.60137 | 5325 ft | 15 kts | 270° |
| 2026-05-04 02:02 | 35.04646 | -106.60262 | 5324 ft | 14 kts | 270° |
| 2026-05-04 02:03 | 35.04626 | -106.60372 | 5318 ft | 14 kts | 226° |
| 2026-05-04 02:03 | 35.04579 | -106.60464 | 5323 ft | 13 kts | 266° |
| 2026-05-04 02:03 | 35.04578 | -106.60573 | 5321 ft | 13 kts | 270° |
| 2026-05-04 02:03 | 35.04578 | -106.60684 | 5326 ft | 14 kts | 270° |
| 2026-05-04 02:04 | 35.04576 | -106.60802 | 5327 ft | 14 kts | 267° |
| 2026-05-04 02:04 | 35.04569 | -106.60915 | 5319 ft | 13 kts | 264° |
| 2026-05-04 02:04 | 35.04569 | -106.61024 | 5325 ft | 13 kts | 271° |
| 2026-05-04 02:04 | 35.04578 | -106.61133 | 5326 ft | 14 kts | 276° |
| 2026-05-04 02:05 | 35.04580 | -106.61245 | 5321 ft | 13 kts | 269° |
| 2026-05-04 02:05 | 35.04568 | -106.61352 | 5322 ft | 13 kts | 247° |
| 2026-05-04 02:05 | 35.04556 | -106.61456 | 5325 ft | 12 kts | 270° |
| 2026-05-04 02:05 | 35.04554 | -106.61560 | 5317 ft | 12 kts | 268° |
| 2026-05-04 02:06 | 35.04555 | -106.61661 | 5319 ft | 12 kts | 270° |
| 2026-05-04 02:06 | 35.04555 | -106.61759 | 5327 ft | 11 kts | 269° |
| 2026-05-04 02:06 | 35.04555 | -106.61806 | 5319 ft | 0 kts | 271° |
| 2026-05-04 02:07 | 35.04556 | -106.61860 | 5319 ft | 12 kts | 270° |
| 2026-05-04 02:07 | 35.04558 | -106.61970 | 5325 ft | 13 kts | 271° |
| 2026-05-04 02:07 | 35.04558 | -106.62077 | 5325 ft | 13 kts | 268° |
| 2026-05-04 02:07 | 35.04501 | -106.62143 | 5321 ft | 12 kts | 190° |
| 2026-05-04 02:08 | 35.04435 | -106.62111 | 5324 ft | 12 kts | 93° |
| 2026-05-04 02:08 | 35.04435 | -106.62086 | 5328 ft | 9 kts | 89° |
| 2026-05-04 02:08 | 35.04433 | -106.61719 | 5326 ft | 77 kts | 90° |
| 2026-05-04 02:08 | 35.04427 | -106.60805 | 5320 ft | 136 kts | 91° |
| 2026-05-04 02:09 | 35.04400 | -106.59442 | 5359 ft | 182 kts | 96° |
| 2026-05-04 02:09 | 35.04440 | -106.57832 | 5935 ft | 195 kts | 90° |
| 2026-05-04 02:09 | 35.04511 | -106.56137 | 6572 ft | 203 kts | 98° |
| 2026-05-04 02:09 | 35.04364 | -106.54397 | 7094 ft | 211 kts | 97° |
| 2026-05-04 02:10 | 35.04719 | -106.52638 | 7581 ft | 225 kts | 59° |
| 2026-05-04 02:10 | 35.05908 | -106.51292 | 7740 ft | 245 kts | 23° |
| 2026-05-04 02:10 | 35.07612 | -106.50887 | 7971 ft | 259 kts | 351° |
| 2026-05-04 02:10 | 35.09328 | -106.51605 | 8232 ft | 269 kts | 320° |
| 2026-05-04 02:11 | 35.10547 | -106.53355 | 8504 ft | 278 kts | 289° |
| 2026-05-04 02:11 | 35.10792 | -106.55654 | 9208 ft | 274 kts | 262° |
| 2026-05-04 02:11 | 35.10581 | -106.57924 | 10130 ft | 271 kts | 262° |
| 2026-05-04 02:11 | 35.10352 | -106.60248 | 10654 ft | 284 kts | 263° |
| 2026-05-04 02:12 | 35.10124 | -106.62749 | 10824 ft | 307 kts | 263° |
| 2026-05-04 02:12 | 35.09902 | -106.65448 | 10975 ft | 330 kts | 264° |
| 2026-05-04 02:12 | 35.09689 | -106.68322 | 11132 ft | 350 kts | 264° |
| 2026-05-04 02:12 | 35.09474 | -106.71360 | 11345 ft | 367 kts | 265° |
| 2026-05-04 02:13 | 35.09256 | -106.74496 | 11812 ft | 373 kts | 265° |
| 2026-05-04 02:13 | 35.09278 | -106.77682 | 12353 ft | 378 kts | 278° |
| 2026-05-04 02:13 | 35.09811 | -106.80827 | 13039 ft | 379 kts | 282° |
| 2026-05-04 02:13 | 35.10354 | -106.83990 | 13661 ft | 382 kts | 281° |
| 2026-05-04 02:14 | 35.10855 | -106.87183 | 14219 ft | 384 kts | 280° |
| 2026-05-04 02:14 | 35.11338 | -106.90394 | 14640 ft | 385 kts | 279° |
| 2026-05-04 02:14 | 35.11793 | -106.93442 | 15214 ft | 386 kts | 279° |
| 2026-05-04 02:14 | 35.12276 | -106.96674 | 15790 ft | 388 kts | 279° |
| 2026-05-04 02:15 | 35.12761 | -106.99912 | 16360 ft | 389 kts | 279° |
| 2026-05-04 02:15 | 35.13249 | -107.03174 | 16901 ft | 391 kts | 279° |
| 2026-05-04 02:15 | 35.13739 | -107.06450 | 17443 ft | 393 kts | 279° |
| 2026-05-04 02:15 | 35.14230 | -107.09741 | 17970 ft | 395 kts | 279° |
| 2026-05-04 02:16 | 35.14723 | -107.13050 | 18437 ft | 397 kts | 279° |
| 2026-05-04 02:16 | 35.15216 | -107.16367 | 18907 ft | 398 kts | 279° |
| 2026-05-04 02:16 | 35.15712 | -107.19705 | 19341 ft | 401 kts | 279° |
| 2026-05-04 02:16 | 35.16210 | -107.23065 | 19801 ft | 402 kts | 279° |
| 2026-05-04 02:17 | 35.16711 | -107.26432 | 20308 ft | 402 kts | 279° |
| 2026-05-04 02:17 | 35.17241 | -107.29789 | 20764 ft | 404 kts | 280° |
| 2026-05-04 02:17 | 35.17792 | -107.33165 | 21184 ft | 406 kts | 280° |
| 2026-05-04 02:17 | 35.18350 | -107.36556 | 21611 ft | 407 kts | 280° |
| 2026-05-04 02:18 | 35.18907 | -107.39950 | 22045 ft | 408 kts | 280° |
| 2026-05-04 02:18 | 35.19463 | -107.43362 | 22438 ft | 410 kts | 280° |
| 2026-05-04 02:18 | 35.20019 | -107.46784 | 22816 ft | 411 kts | 280° |
| 2026-05-04 02:18 | 35.20576 | -107.50229 | 23176 ft | 413 kts | 280° |
| 2026-05-04 02:19 | 35.21132 | -107.53681 | 23498 ft | 416 kts | 279° |
| 2026-05-04 02:19 | 35.21693 | -107.57167 | 23747 ft | 418 kts | 279° |
| 2026-05-04 02:19 | 35.22248 | -107.60658 | 24132 ft | 417 kts | 280° |
| 2026-05-04 02:19 | 35.22807 | -107.64126 | 24535 ft | 416 kts | 280° |
| 2026-05-04 02:20 | 35.23360 | -107.67600 | 24865 ft | 417 kts | 279° |
| 2026-05-04 02:20 | 35.23907 | -107.71042 | 25160 ft | 418 kts | 279° |
| 2026-05-04 02:20 | 35.24461 | -107.74545 | 25436 ft | 419 kts | 279° |
| 2026-05-04 02:20 | 35.25016 | -107.78048 | 25735 ft | 420 kts | 280° |
| 2026-05-04 02:21 | 35.25571 | -107.81560 | 26297 ft | 418 kts | 280° |
| 2026-05-04 02:21 | 35.26120 | -107.85037 | 26805 ft | 414 kts | 280° |
| 2026-05-04 02:21 | 35.26663 | -107.88476 | 27317 ft | 410 kts | 280° |
| 2026-05-04 02:21 | 35.27200 | -107.91888 | 27802 ft | 407 kts | 279° |
| 2026-05-04 02:22 | 35.27732 | -107.95277 | 28242 ft | 404 kts | 280° |
| 2026-05-04 02:22 | 35.28260 | -107.98650 | 28690 ft | 402 kts | 279° |
| 2026-05-04 02:22 | 35.28783 | -108.01992 | 29148 ft | 399 kts | 279° |
| 2026-05-04 02:22 | 35.29302 | -108.05311 | 29627 ft | 395 kts | 279° |
| 2026-05-04 02:23 | 35.29815 | -108.08606 | 30038 ft | 394 kts | 279° |
| 2026-05-04 02:23 | 35.30328 | -108.11915 | 30007 ft | 397 kts | 280° |
| 2026-05-04 02:23 | 35.31356 | -108.18550 | 29989 ft | 394 kts | 279° |
| 2026-05-04 02:24 | 35.32371 | -108.25114 | 29954 ft | 392 kts | 279° |
| 2026-05-04 02:24 | 35.33380 | -108.31669 | 29947 ft | 392 kts | 279° |
| 2026-05-04 02:25 | 35.34428 | -108.38233 | 29922 ft | 393 kts | 282° |
| 2026-05-04 02:25 | 35.36071 | -108.44596 | 29910 ft | 395 kts | 287° |
| 2026-05-04 02:26 | 35.37888 | -108.50995 | 29914 ft | 395 kts | 287° |
| 2026-05-04 02:26 | 35.39640 | -108.57373 | 29897 ft | 395 kts | 286° |
| 2026-05-04 02:27 | 35.41344 | -108.63725 | 29896 ft | 395 kts | 286° |
| 2026-05-04 02:27 | 35.43046 | -108.70121 | 29900 ft | 394 kts | 285° |
| 2026-05-04 02:28 | 35.44744 | -108.76513 | 30068 ft | 394 kts | 285° |
| 2026-05-04 02:28 | 35.46439 | -108.82906 | 30071 ft | 394 kts | 285° |
| 2026-05-04 02:29 | 35.47799 | -108.89378 | 30070 ft | 391 kts | 273° |
| 2026-05-04 02:29 | 35.48067 | -108.96051 | 30043 ft | 391 kts | 273° |
| 2026-05-04 02:30 | 35.48370 | -109.02703 | 30001 ft | 390 kts | 273° |
| 2026-05-04 02:30 | 35.48689 | -109.09338 | 30027 ft | 389 kts | 273° |
| 2026-05-04 02:31 | 35.49009 | -109.15970 | 30015 ft | 390 kts | 273° |
| 2026-05-04 02:31 | 35.49326 | -109.22614 | 30002 ft | 391 kts | 273° |
| 2026-05-04 02:32 | 35.49639 | -109.29233 | 29981 ft | 392 kts | 273° |
| 2026-05-04 02:32 | 35.49951 | -109.35921 | 29952 ft | 393 kts | 273° |
| 2026-05-04 02:33 | 35.50259 | -109.42619 | 29914 ft | 394 kts | 273° |
| 2026-05-04 02:33 | 35.50566 | -109.49354 | 29885 ft | 395 kts | 273° |
| 2026-05-04 02:34 | 35.50869 | -109.56096 | 29870 ft | 395 kts | 273° |
| 2026-05-04 02:34 | 35.51168 | -109.62833 | 29881 ft | 395 kts | 273° |
| 2026-05-04 02:35 | 35.51463 | -109.69568 | 29868 ft | 395 kts | 273° |
| 2026-05-04 02:35 | 35.51754 | -109.76305 | 29867 ft | 395 kts | 273° |
| 2026-05-04 02:36 | 35.52042 | -109.83034 | 29865 ft | 395 kts | 272° |
| 2026-05-04 02:36 | 35.52324 | -109.89721 | 29858 ft | 394 kts | 272° |
| 2026-05-04 02:37 | 35.52605 | -109.96475 | 29850 ft | 393 kts | 272° |
| 2026-05-04 02:37 | 35.52878 | -110.03132 | 29879 ft | 393 kts | 272° |
| 2026-05-04 02:38 | 35.53149 | -110.09828 | 29850 ft | 392 kts | 272° |
| 2026-05-04 02:38 | 35.53417 | -110.16517 | 29841 ft | 392 kts | 272° |
| 2026-05-04 02:39 | 35.53677 | -110.23189 | 29843 ft | 390 kts | 272° |
| 2026-05-04 02:39 | 35.53893 | -110.28730 | 29820 ft | 390 kts | 272° |
| 2026-05-04 02:40 | 35.54148 | -110.35382 | 29833 ft | 390 kts | 272° |
| 2026-05-04 02:40 | 35.54401 | -110.42037 | 29816 ft | 390 kts | 272° |
| 2026-05-04 02:41 | 35.54650 | -110.48698 | 29822 ft | 391 kts | 271° |
| 2026-05-04 02:41 | 35.54896 | -110.55379 | 29827 ft | 391 kts | 271° |
| 2026-05-04 02:42 | 35.55135 | -110.62005 | 29821 ft | 391 kts | 271° |
| 2026-05-04 02:42 | 35.55373 | -110.68700 | 29815 ft | 392 kts | 271° |
| 2026-05-04 02:43 | 35.55608 | -110.75390 | 29812 ft | 392 kts | 271° |
| 2026-05-04 02:43 | 35.55839 | -110.82086 | 29794 ft | 393 kts | 271° |
| 2026-05-04 02:44 | 35.56067 | -110.88797 | 29809 ft | 393 kts | 271° |
| 2026-05-04 02:44 | 35.56291 | -110.95507 | 29803 ft | 393 kts | 271° |
| 2026-05-04 02:45 | 35.56511 | -111.02224 | 29803 ft | 394 kts | 271° |
| 2026-05-04 02:45 | 35.56728 | -111.08946 | 29809 ft | 393 kts | 271° |
| 2026-05-04 02:46 | 35.56940 | -111.15619 | 29824 ft | 394 kts | 271° |
| 2026-05-04 02:46 | 35.57149 | -111.22342 | 29806 ft | 394 kts | 271° |
| 2026-05-04 02:47 | 35.57355 | -111.29060 | 29826 ft | 394 kts | 271° |
| 2026-05-04 02:47 | 35.57557 | -111.35774 | 29828 ft | 393 kts | 271° |
| 2026-05-04 02:48 | 35.57755 | -111.42479 | 29843 ft | 393 kts | 270° |
| 2026-05-04 02:48 | 35.57949 | -111.49174 | 29845 ft | 392 kts | 270° |
| 2026-05-04 02:49 | 35.58139 | -111.55871 | 29869 ft | 392 kts | 270° |
| 2026-05-04 02:49 | 35.58326 | -111.62582 | 29875 ft | 393 kts | 271° |
| 2026-05-04 02:50 | 35.58507 | -111.69250 | 29866 ft | 393 kts | 270° |
| 2026-05-04 02:50 | 35.58687 | -111.75963 | 29868 ft | 393 kts | 270° |
| 2026-05-04 02:51 | 35.58864 | -111.82675 | 29902 ft | 393 kts | 270° |
| 2026-05-04 02:51 | 35.59161 | -111.89379 | 29940 ft | 394 kts | 277° |
| 2026-05-04 02:52 | 35.60161 | -111.96013 | 29985 ft | 395 kts | 278° |
| 2026-05-04 02:52 | 35.61165 | -112.02647 | 30024 ft | 395 kts | 278° |
| 2026-05-04 02:53 | 35.62155 | -112.09301 | 30037 ft | 395 kts | 278° |
| 2026-05-04 02:53 | 35.63135 | -112.15954 | 30044 ft | 396 kts | 277° |
| 2026-05-04 02:54 | 35.64108 | -112.22595 | 30019 ft | 394 kts | 277° |
| 2026-05-04 02:54 | 35.65074 | -112.29221 | 29993 ft | 393 kts | 277° |
| 2026-05-04 02:55 | 35.66502 | -112.39066 | 29937 ft | 391 kts | 277° |
| 2026-05-04 02:56 | 35.67450 | -112.45635 | 29900 ft | 389 kts | 277° |
| 2026-05-04 02:56 | 35.68393 | -112.52193 | 29877 ft | 389 kts | 277° |
| 2026-05-04 02:57 | 35.69332 | -112.58751 | 29869 ft | 389 kts | 277° |
| 2026-05-04 02:57 | 35.70268 | -112.65317 | 29867 ft | 390 kts | 277° |
| 2026-05-04 02:58 | 35.71204 | -112.71902 | 29865 ft | 391 kts | 277° |
| 2026-05-04 02:58 | 35.72136 | -112.78494 | 29875 ft | 391 kts | 276° |
| 2026-05-04 02:59 | 35.73065 | -112.85108 | 29855 ft | 393 kts | 277° |
| 2026-05-04 02:59 | 35.73998 | -112.91746 | 29847 ft | 393 kts | 277° |
| 2026-05-04 03:00 | 35.74920 | -112.98339 | 29817 ft | 393 kts | 276° |
| 2026-05-04 03:00 | 35.75844 | -113.04974 | 29838 ft | 394 kts | 276° |
| 2026-05-04 03:01 | 35.76765 | -113.11614 | 29824 ft | 393 kts | 276° |
| 2026-05-04 03:01 | 35.77679 | -113.18242 | 29827 ft | 393 kts | 276° |
| 2026-05-04 03:02 | 35.78590 | -113.24877 | 29746 ft | 391 kts | 276° |
| 2026-05-04 03:02 | 35.79488 | -113.31465 | 29785 ft | 390 kts | 276° |
| 2026-05-04 03:03 | 35.80388 | -113.38063 | 29775 ft | 390 kts | 276° |
| 2026-05-04 03:03 | 35.81280 | -113.44619 | 29774 ft | 391 kts | 276° |
| 2026-05-04 03:04 | 35.82174 | -113.51239 | 29781 ft | 392 kts | 276° |
| 2026-05-04 03:04 | 35.83066 | -113.57868 | 29765 ft | 393 kts | 276° |
| 2026-05-04 03:05 | 35.83950 | -113.64511 | 29740 ft | 392 kts | 275° |
| 2026-05-04 03:05 | 35.84840 | -113.71133 | 29745 ft | 391 kts | 276° |
| 2026-05-04 03:06 | 35.85727 | -113.77727 | 29733 ft | 389 kts | 276° |
| 2026-05-04 03:06 | 35.86528 | -113.84262 | 29729 ft | 388 kts | 276° |
| 2026-05-04 03:07 | 35.87415 | -113.90823 | 29718 ft | 388 kts | 276° |
| 2026-05-04 03:07 | 35.88297 | -113.97398 | 29707 ft | 389 kts | 276° |
| 2026-05-04 03:08 | 35.89164 | -114.03993 | 29691 ft | 390 kts | 276° |
| 2026-05-04 03:08 | 35.90023 | -114.10595 | 29685 ft | 390 kts | 276° |
| 2026-05-04 03:09 | 35.90883 | -114.17194 | 29671 ft | 390 kts | 276° |
| 2026-05-04 03:09 | 35.91726 | -114.23764 | 29678 ft | 390 kts | 275° |
| 2026-05-04 03:10 | 35.92572 | -114.30384 | 29654 ft | 391 kts | 275° |
| 2026-05-04 03:10 | 35.93417 | -114.37005 | 29664 ft | 391 kts | 276° |
| 2026-05-04 03:11 | 35.94259 | -114.43644 | 29665 ft | 392 kts | 275° |
| 2026-05-04 03:11 | 35.95101 | -114.50295 | 29677 ft | 392 kts | 275° |
| 2026-05-04 03:12 | 35.95939 | -114.56945 | 29688 ft | 391 kts | 275° |
| 2026-05-04 03:12 | 35.96766 | -114.63546 | 29728 ft | 389 kts | 275° |
| 2026-05-04 03:13 | 35.97592 | -114.70170 | 29753 ft | 391 kts | 275° |
| 2026-05-04 03:13 | 35.98421 | -114.76809 | 29759 ft | 391 kts | 275° |
| 2026-05-04 03:14 | 35.99270 | -114.83452 | 29776 ft | 393 kts | 278° |
| 2026-05-04 03:14 | 36.01053 | -114.89838 | 29767 ft | 401 kts | 291° |
| 2026-05-04 03:15 | 36.03729 | -114.95909 | 29743 ft | 402 kts | 292° |
| 2026-05-04 03:15 | 36.06427 | -115.02000 | 29750 ft | 401 kts | 292° |
| 2026-05-04 03:16 | 36.09065 | -115.08001 | 29770 ft | 399 kts | 292° |
| 2026-05-04 03:16 | 36.11704 | -115.14043 | 29767 ft | 399 kts | 292° |
| 2026-05-04 03:17 | 36.14334 | -115.20079 | 29753 ft | 399 kts | 291° |
| 2026-05-04 03:17 | 36.16956 | -115.26111 | 29750 ft | 398 kts | 291° |
| 2026-05-04 03:18 | 36.19572 | -115.32139 | 29760 ft | 397 kts | 291° |
| 2026-05-04 03:18 | 36.22187 | -115.38187 | 29745 ft | 401 kts | 291° |
| 2026-05-04 03:19 | 36.24821 | -115.44297 | 29764 ft | 402 kts | 291° |
| 2026-05-04 03:19 | 36.27458 | -115.50403 | 29779 ft | 402 kts | 291° |
| 2026-05-04 03:20 | 36.30093 | -115.56507 | 29809 ft | 401 kts | 291° |
| 2026-05-04 03:20 | 36.32698 | -115.62545 | 29780 ft | 395 kts | 291° |
| 2026-05-04 03:21 | 36.35285 | -115.68567 | 29769 ft | 397 kts | 291° |
| 2026-05-04 03:21 | 36.37883 | -115.74644 | 29784 ft | 400 kts | 291° |
| 2026-05-04 03:22 | 36.40495 | -115.80759 | 29763 ft | 402 kts | 291° |
| 2026-05-04 03:22 | 36.43114 | -115.86869 | 29802 ft | 402 kts | 290° |
| 2026-05-04 03:23 | 36.45723 | -115.92901 | 29728 ft | 394 kts | 290° |
| 2026-05-04 03:23 | 36.48258 | -115.98929 | 29687 ft | 393 kts | 288° |
| 2026-05-04 03:24 | 36.50803 | -116.04993 | 29718 ft | 400 kts | 291° |
| 2026-05-04 03:24 | 36.53453 | -116.11079 | 29709 ft | 396 kts | 290° |
| 2026-05-04 03:25 | 36.55987 | -116.17142 | 29702 ft | 395 kts | 290° |
| 2026-05-04 03:25 | 36.58527 | -116.23216 | 29705 ft | 396 kts | 290° |
| 2026-05-04 03:26 | 36.61075 | -116.29279 | 29701 ft | 395 kts | 290° |
| 2026-05-04 03:26 | 36.63621 | -116.35336 | 29703 ft | 394 kts | 290° |
| 2026-05-04 03:27 | 36.66157 | -116.41376 | 29691 ft | 393 kts | 290° |
| 2026-05-04 03:27 | 36.68687 | -116.47414 | 29699 ft | 392 kts | 290° |
| 2026-05-04 03:28 | 36.71238 | -116.53428 | 29717 ft | 392 kts | 289° |
| 2026-05-04 03:28 | 36.73311 | -116.58458 | 29715 ft | 393 kts | 289° |
| 2026-05-04 03:29 | 36.76231 | -116.65495 | 29703 ft | 393 kts | 289° |
| 2026-05-04 03:29 | 36.78765 | -116.71542 | 29694 ft | 396 kts | 292° |
| 2026-05-04 03:30 | 36.81526 | -116.76262 | 29711 ft | 409 kts | 302° |
| 2026-05-04 03:30 | 36.85749 | -116.81128 | 29706 ft | 418 kts | 308° |
| 2026-05-04 03:31 | 36.90141 | -116.85910 | 29732 ft | 420 kts | 309° |
| 2026-05-04 03:31 | 36.94533 | -116.90725 | 29746 ft | 421 kts | 308° |
| 2026-05-04 03:32 | 36.98924 | -116.95568 | 29744 ft | 420 kts | 308° |
| 2026-05-04 03:32 | 37.03304 | -117.00426 | 29775 ft | 421 kts | 309° |
| 2026-05-04 03:33 | 37.07703 | -117.05313 | 29759 ft | 424 kts | 309° |
| 2026-05-04 03:33 | 37.12130 | -117.10236 | 29763 ft | 427 kts | 309° |
| 2026-05-04 03:34 | 37.16585 | -117.15199 | 29767 ft | 430 kts | 309° |
| 2026-05-04 03:34 | 37.21052 | -117.20178 | 29795 ft | 429 kts | 310° |
| 2026-05-04 03:35 | 37.25574 | -117.25241 | 29786 ft | 441 kts | 311° |
| 2026-05-04 03:35 | 37.30142 | -117.30352 | 29774 ft | 444 kts | 311° |
| 2026-05-04 03:36 | 37.34751 | -117.35514 | 29764 ft | 443 kts | 311° |
| 2026-05-04 03:36 | 37.39341 | -117.40668 | 29763 ft | 441 kts | 311° |
| 2026-05-04 03:37 | 37.43900 | -117.45796 | 29773 ft | 438 kts | 311° |
| 2026-05-04 03:37 | 37.48154 | -117.51159 | 29747 ft | 422 kts | 294° |
| 2026-05-04 03:37 | 37.49383 | -117.54450 | 29774 ft | 411 kts | 283° |
| 2026-05-04 03:38 | 37.50005 | -117.57915 | 29777 ft | 403 kts | 273° |
| 2026-05-04 03:38 | 37.55446 | -118.30626 | 30615 ft | 420 kts | 272° |
| 2026-05-04 03:38 | 37.63228 | -119.35781 | 31127 ft | 451 kts | 272° |
| 2026-05-04 03:39 | 37.69286 | -120.28833 | 31431 ft | 464 kts | 272° |
| 2026-05-04 03:39 | 37.69310 | -120.29223 | 31429 ft | 464 kts | 272° |
| 2026-05-04 03:39 | 37.69526 | -120.33292 | 31192 ft | 459 kts | 271° |
| 2026-05-04 03:40 | 37.69737 | -120.37268 | 30936 ft | 449 kts | 272° |
| 2026-05-04 03:40 | 37.69902 | -120.41146 | 30687 ft | 434 kts | 266° |
| 2026-05-04 03:40 | 37.69611 | -120.44847 | 30439 ft | 415 kts | 259° |
| 2026-05-04 03:40 | 37.69154 | -120.48375 | 30203 ft | 400 kts | 258° |
| 2026-05-04 03:41 | 37.68693 | -120.51766 | 30074 ft | 384 kts | 258° |
| 2026-05-04 03:41 | 37.68265 | -120.55022 | 29973 ft | 367 kts | 258° |
| 2026-05-04 03:41 | 37.67875 | -120.58139 | 29925 ft | 355 kts | 259° |
| 2026-05-04 03:42 | 37.67120 | -120.64385 | 29227 ft | 367 kts | 259° |
| 2026-05-04 03:42 | 37.66737 | -120.67621 | 28046 ft | 380 kts | 259° |
| 2026-05-04 03:42 | 37.66338 | -120.70996 | 26611 ft | 398 kts | 259° |
| 2026-05-04 03:42 | 37.65921 | -120.74517 | 25266 ft | 413 kts | 259° |
| 2026-05-04 03:43 | 37.65491 | -120.78129 | 24280 ft | 417 kts | 259° |
| 2026-05-04 03:43 | 37.65064 | -120.81691 | 23593 ft | 413 kts | 259° |
| 2026-05-04 03:43 | 37.64636 | -120.85246 | 22871 ft | 407 kts | 259° |
| 2026-05-04 03:43 | 37.64214 | -120.88749 | 22182 ft | 400 kts | 259° |
| 2026-05-04 03:44 | 37.63798 | -120.92196 | 21480 ft | 394 kts | 259° |
| 2026-05-04 03:44 | 37.63385 | -120.95594 | 20821 ft | 389 kts | 259° |
| 2026-05-04 03:44 | 37.62962 | -120.98937 | 20178 ft | 383 kts | 258° |
| 2026-05-04 03:44 | 37.62524 | -121.02225 | 19533 ft | 378 kts | 258° |
| 2026-05-04 03:45 | 37.62084 | -121.05471 | 18880 ft | 373 kts | 258° |
| 2026-05-04 03:45 | 37.61650 | -121.08680 | 18247 ft | 369 kts | 258° |
| 2026-05-04 03:45 | 37.61223 | -121.11852 | 17528 ft | 364 kts | 258° |
| 2026-05-04 03:45 | 37.60800 | -121.14990 | 16723 ft | 363 kts | 258° |
| 2026-05-04 03:46 | 37.60378 | -121.18128 | 15943 ft | 362 kts | 258° |
| 2026-05-04 03:46 | 37.59956 | -121.21261 | 15414 ft | 362 kts | 258° |
| 2026-05-04 03:46 | 37.59536 | -121.24369 | 15038 ft | 355 kts | 258° |
| 2026-05-04 03:46 | 37.59132 | -121.27403 | 14515 ft | 347 kts | 260° |
| 2026-05-04 03:47 | 37.58772 | -121.30412 | 13835 ft | 346 kts | 261° |
| 2026-05-04 03:47 | 37.58435 | -121.33405 | 13211 ft | 344 kts | 260° |
| 2026-05-04 03:47 | 37.58102 | -121.36372 | 12883 ft | 340 kts | 260° |
| 2026-05-04 03:47 | 37.57768 | -121.39324 | 12534 ft | 340 kts | 259° |
| 2026-05-04 03:48 | 37.57433 | -121.42262 | 12195 ft | 339 kts | 260° |
| 2026-05-04 03:48 | 37.57100 | -121.45161 | 11879 ft | 337 kts | 260° |
| 2026-05-04 03:48 | 37.56762 | -121.48079 | 11547 ft | 336 kts | 259° |
| 2026-05-04 03:48 | 37.56423 | -121.50985 | 11234 ft | 334 kts | 260° |
| 2026-05-04 03:49 | 37.56086 | -121.53877 | 10923 ft | 332 kts | 260° |
| 2026-05-04 03:49 | 37.55751 | -121.56741 | 10601 ft | 328 kts | 260° |
| 2026-05-04 03:49 | 37.55421 | -121.59570 | 10283 ft | 322 kts | 259° |
| 2026-05-04 03:49 | 37.55098 | -121.62313 | 9967 ft | 311 kts | 258° |
| 2026-05-04 03:50 | 37.54621 | -121.64882 | 9889 ft | 291 kts | 251° |
| 2026-05-04 03:50 | 37.54012 | -121.67322 | 9436 ft | 291 kts | 250° |
| 2026-05-04 03:50 | 37.53389 | -121.69741 | 9128 ft | 289 kts | 249° |
| 2026-05-04 03:50 | 37.52787 | -121.72148 | 8817 ft | 287 kts | 250° |
| 2026-05-04 03:51 | 37.52203 | -121.74547 | 8536 ft | 285 kts | 249° |
| 2026-05-04 03:51 | 37.51631 | -121.76919 | 8247 ft | 281 kts | 250° |
| 2026-05-04 03:51 | 37.51068 | -121.79275 | 7995 ft | 279 kts | 251° |
| 2026-05-04 03:51 | 37.50511 | -121.81598 | 7703 ft | 273 kts | 250° |
| 2026-05-04 03:52 | 37.49969 | -121.83856 | 7422 ft | 266 kts | 249° |
| 2026-05-04 03:52 | 37.49443 | -121.86054 | 7154 ft | 260 kts | 249° |
| 2026-05-04 03:52 | 37.49060 | -121.88263 | 6867 ft | 260 kts | 266° |
| 2026-05-04 03:52 | 37.49208 | -121.90544 | 6618 ft | 261 kts | 272° |
| 2026-05-04 03:53 | 37.49372 | -121.92824 | 6377 ft | 264 kts | 271° |
| 2026-05-04 03:53 | 37.49516 | -121.95158 | 6095 ft | 269 kts | 271° |
| 2026-05-04 03:53 | 37.49657 | -121.97513 | 5761 ft | 269 kts | 271° |
| 2026-05-04 03:53 | 37.49794 | -121.99840 | 5440 ft | 263 kts | 271° |
| 2026-05-04 03:54 | 37.49925 | -122.02103 | 5125 ft | 256 kts | 271° |
| 2026-05-04 03:54 | 37.50053 | -122.04314 | 4842 ft | 249 kts | 271° |
| 2026-05-04 03:54 | 37.50173 | -122.06435 | 4559 ft | 244 kts | 272° |
| 2026-05-04 03:54 | 37.50294 | -122.08573 | 4298 ft | 245 kts | 272° |
| 2026-05-04 03:55 | 37.50687 | -122.10668 | 3990 ft | 249 kts | 295° |
| 2026-05-04 03:55 | 37.51544 | -122.12560 | 3729 ft | 248 kts | 296° |
| 2026-05-04 03:55 | 37.52419 | -122.14429 | 3452 ft | 247 kts | 298° |
| 2026-05-04 03:55 | 37.53266 | -122.16306 | 3179 ft | 245 kts | 296° |
| 2026-05-04 03:56 | 37.54062 | -122.18196 | 2888 ft | 243 kts | 295° |
| 2026-05-04 03:56 | 37.54829 | -122.20047 | 2607 ft | 233 kts | 296° |
| 2026-05-04 03:56 | 37.55560 | -122.21805 | 2404 ft | 217 kts | 296° |
| 2026-05-04 03:56 | 37.56222 | -122.23396 | 2186 ft | 195 kts | 295° |
| 2026-05-04 03:57 | 37.56825 | -122.24844 | 1956 ft | 178 kts | 295° |
| 2026-05-04 03:57 | 37.57371 | -122.26155 | 1756 ft | 161 kts | 295° |
| 2026-05-04 03:57 | 37.57861 | -122.27332 | 1560 ft | 148 kts | 294° |
| 2026-05-04 03:57 | 37.58336 | -122.28476 | 1354 ft | 145 kts | 294° |
| 2026-05-04 03:58 | 37.59256 | -122.30690 | 950 ft | 140 kts | 295° |
| 2026-05-04 03:58 | 37.59726 | -122.31742 | 762 ft | 135 kts | 294° |
| 2026-05-04 03:58 | 37.60156 | -122.32831 | 587 ft | 141 kts | 292° |
| 2026-05-04 03:59 | 37.60593 | -122.33940 | 450 ft | 143 kts | 296° |
| 2026-05-04 03:59 | 37.61075 | -122.35047 | 263 ft | 144 kts | 295° |
| 2026-05-04 03:59 | 37.61541 | -122.36133 | 136 ft | 151 kts | 295° |
| 2026-05-04 03:59 | 37.62073 | -122.37252 | 1189 ft | 121 kts | 301° |
| 2026-05-04 04:00 | 37.62487 | -122.38055 | 2090 ft | 117 kts | 292° |
| 2026-05-04 04:00 | 37.62907 | -122.39127 | 2193 ft | 157 kts | 293° |
| 2026-05-04 04:00 | 37.63443 | -122.40496 | 2528 ft | 190 kts | 294° |
| 2026-05-04 04:00 | 37.64067 | -122.42066 | 2864 ft | 212 kts | 295° |
| 2026-05-04 04:01 | 37.64754 | -122.43766 | 2967 ft | 222 kts | 295° |
| 2026-05-04 04:01 | 37.65398 | -122.45554 | 2984 ft | 233 kts | 282° |
| 2026-05-04 04:01 | 37.65238 | -122.47625 | 3032 ft | 246 kts | 243° |
| 2026-05-04 04:01 | 37.64104 | -122.49178 | 3013 ft | 240 kts | 210° |
| 2026-05-04 04:02 | 37.62547 | -122.49718 | 3005 ft | 230 kts | 181° |
| 2026-05-04 04:02 | 37.61046 | -122.49222 | 3023 ft | 224 kts | 152° |
| 2026-05-04 04:02 | 37.59918 | -122.47885 | 3022 ft | 227 kts | 123° |
| 2026-05-04 04:02 | 37.59414 | -122.45989 | 3034 ft | 233 kts | 99° |
| 2026-05-04 04:03 | 37.59011 | -122.44004 | 3015 ft | 235 kts | 115° |
| 2026-05-04 04:03 | 37.58392 | -122.42101 | 3025 ft | 235 kts | 113° |
| 2026-05-04 04:03 | 37.57780 | -122.40193 | 3020 ft | 234 kts | 118° |
| 2026-05-04 04:03 | 37.57015 | -122.38393 | 3016 ft | 232 kts | 121° |
| 2026-05-04 04:04 | 37.56220 | -122.36623 | 3008 ft | 232 kts | 122° |
| 2026-05-04 04:04 | 37.55428 | -122.34857 | 3011 ft | 232 kts | 122° |
| 2026-05-04 04:04 | 37.54543 | -122.33044 | 3054 ft | 256 kts | 130° |
| 2026-05-04 04:04 | 37.53369 | -122.31294 | 3027 ft | 263 kts | 133° |
| 2026-05-04 04:05 | 37.52180 | -122.29545 | 3012 ft | 263 kts | 133° |
| 2026-05-04 04:05 | 37.50986 | -122.27794 | 3028 ft | 264 kts | 133° |
| 2026-05-04 04:05 | 37.49801 | -122.26053 | 3009 ft | 256 kts | 133° |
| 2026-05-04 04:05 | 37.48687 | -122.24379 | 3008 ft | 243 kts | 127° |
| 2026-05-04 04:06 | 37.48105 | -122.22441 | 3024 ft | 239 kts | 95° |
| 2026-05-04 04:06 | 37.48308 | -122.20323 | 2930 ft | 251 kts | 78° |
| 2026-05-04 04:06 | 37.48924 | -122.18251 | 2658 ft | 256 kts | 55° |
| 2026-05-04 04:06 | 37.50222 | -122.16777 | 2398 ft | 252 kts | 24° |
| 2026-05-04 04:07 | 37.51874 | -122.16156 | 2144 ft | 246 kts | 1° |
| 2026-05-04 04:07 | 37.53558 | -122.16193 | 1925 ft | 240 kts | 354° |
| 2026-05-04 04:07 | 37.55189 | -122.16404 | 1825 ft | 229 kts | 340° |
| 2026-05-04 04:07 | 37.56385 | -122.17497 | 1821 ft | 208 kts | 297° |
| 2026-05-04 04:08 | 37.56644 | -122.19187 | 1853 ft | 196 kts | 265° |
| 2026-05-04 04:08 | 37.56618 | -122.20839 | 1821 ft | 181 kts | 273° |
| 2026-05-04 04:08 | 37.56778 | -122.22346 | 1802 ft | 165 kts | 279° |
| 2026-05-04 04:08 | 37.57021 | -122.23695 | 1828 ft | 156 kts | 283° |
| 2026-05-04 04:09 | 37.57324 | -122.24971 | 1860 ft | 147 kts | 286° |
| 2026-05-04 04:09 | 37.57625 | -122.26185 | 1722 ft | 146 kts | 288° |
| 2026-05-04 04:09 | 37.58020 | -122.27362 | 1503 ft | 144 kts | 291° |
| 2026-05-04 04:09 | 37.58436 | -122.28489 | 1319 ft | 141 kts | 293° |
| 2026-05-04 04:10 | 37.58835 | -122.29614 | 1135 ft | 141 kts | 292° |
| 2026-05-04 04:10 | 37.59260 | -122.30747 | 925 ft | 144 kts | 293° |
| 2026-05-04 04:10 | 37.59715 | -122.31869 | 702 ft | 144 kts | 294° |
| 2026-05-04 04:10 | 37.60188 | -122.32948 | 570 ft | 142 kts | 295° |
| 2026-05-04 04:11 | 37.60677 | -122.34047 | 313 ft | 140 kts | 294° |
| 2026-05-04 04:11 | 37.61125 | -122.35146 | 198 ft | 142 kts | 294° |
| 2026-05-04 04:11 | 37.61578 | -122.36241 | 47 ft | 141 kts | 293° |
| 2026-05-04 04:11 | 37.62012 | -122.37278 | 17 ft | 118 kts | 291° |
| 2026-05-04 04:12 | 37.62318 | -122.38026 | 23 ft | 74 kts | 299° |
| 2026-05-04 04:12 | 37.62460 | -122.38354 | 21 ft | 21 kts | 298° |
| 2026-05-04 04:12 | 37.62493 | -122.38529 | 18 ft | 21 kts | 270° |
| 2026-05-04 04:12 | 37.62495 | -122.38585 | 18 ft | 3 kts | 272° |
| 2026-05-04 04:13 | 37.62497 | -122.38629 | 18 ft | 6 kts | 275° |
| 2026-05-04 04:13 | 37.62500 | -122.38683 | 18 ft | 7 kts | 271° |
| 2026-05-04 04:13 | 37.62499 | -122.38733 | 18 ft | 0 kts | 268° |
| 2026-05-04 04:13 | 37.62499 | -122.38734 | 18 ft | 0 kts | 268° |
| 2026-05-04 04:14 | 37.62498 | -122.38781 | 18 ft | 10 kts | 270° |
| 2026-05-04 04:14 | 37.62471 | -122.38859 | 18 ft | 10 kts | 219° |
| 2026-05-04 04:14 | 37.62413 | -122.38910 | 17 ft | 8 kts | 209° |
| 2026-05-04 04:14 | 37.62411 | -122.38911 | 17 ft | 1 kts | 209° |